Time;durP1;ratioP1;P1;durP2;ratioP2;P2;SDS_P1;SDS_P2;PMS_P1;PMS_P2;Temp;Humidity;BMP_temperature;BMP_pressure;BME280_temperature;BME280_humidity;BME280_pressure;Samples;Min_cycle;Max_cycle;Signal;HPM_P1;HPM_P2
2023/03/25 00:00:38;;;;;;;7.50;4.90;;;;;;;10.62;83.35;99317.17;103849;279;39453;-75
2023/03/25 00:03:27;;;;;;;5.80;5.00;;;;;;;10.62;83.35;99311.08;103689;280;38580;-72
2023/03/25 00:06:01;;;;;;;7.30;5.30;;;;;;;10.58;83.12;99310.23;103708;280;38699;-72
2023/03/25 00:08:35;;;;;;;5.80;4.80;;;;;;;10.53;83.29;99305.09;103655;280;39687;-74
2023/03/25 00:11:09;;;;;;;7.80;5.60;;;;;;;10.50;83.20;99303.34;103686;280;38397;-74
2023/03/25 00:13:44;;;;;;;8.20;5.60;;;;;;;10.48;83.13;99303.98;103723;280;39442;-73
2023/03/25 00:16:19;;;;;;;5.70;5.10;;;;;;;10.45;83.21;99309.22;103652;280;38710;-72
2023/03/25 00:18:53;;;;;;;6.40;5.70;;;;;;;10.41;83.16;99306.09;103683;280;38512;-72
2023/03/25 00:21:27;;;;;;;5.70;4.80;;;;;;;10.34;83.09;99303.01;103672;280;38260;-72
2023/03/25 00:24:02;;;;;;;8.00;5.40;;;;;;;10.29;83.14;99312.51;103710;280;38566;-74
2023/03/25 00:26:41;;;;;;;7.20;5.30;;;;;;;10.27;83.44;99319.05;103704;280;38290;-74
2023/03/25 00:29:14;;;;;;;;;;;;;;;10.26;83.72;99307.95;103732;280;38379;-72
2023/03/25 00:31:48;;;;;;;7.80;6.10;;;;;;;10.22;83.92;99305.19;103705;280;39129;-72
2023/03/25 00:34:22;;;;;;;7.00;5.50;;;;;;;10.21;83.95;99316.59;103716;272;39018;-74
2023/03/25 00:36:57;;;;;;;7.50;5.60;;;;;;;10.19;83.76;99328.35;103702;280;38230;-74
2023/03/25 00:39:32;;;;;;;6.60;5.40;;;;;;;10.17;83.76;99310.52;103661;268;39427;-72
2023/03/25 00:42:10;;;;;;;6.50;5.60;;;;;;;10.14;83.95;99308.38;103682;280;38231;-73
2023/03/25 00:44:45;;;;;;;8.10;5.60;;;;;;;10.12;83.96;99307.78;103672;280;39419;-74
2023/03/25 00:47:20;;;;;;;8.40;5.80;;;;;;;10.09;83.96;99305.86;103676;280;39568;-74
2023/03/25 00:49:55;;;;;;;6.40;5.40;;;;;;;10.06;83.88;99310.92;103721;280;38761;-70
2023/03/25 00:52:29;;;;;;;7.20;5.70;;;;;;;10.02;83.87;99308.14;103437;280;175382;-72
2023/03/25 00:55:04;;;;;;;8.80;5.90;;;;;;;10.00;83.92;99304.06;103668;279;38518;-72
2023/03/25 00:57:38;;;;;;;7.30;5.90;;;;;;;9.99;83.83;99310.79;103716;280;38231;-72
2023/03/25 01:00:16;;;;;;;7.70;6.20;;;;;;;9.90;83.63;99310.89;103716;280;39960;-72
2023/03/25 01:02:52;;;;;;;8.50;6.30;;;;;;;9.85;83.73;99312.35;103837;279;39681;-73
2023/03/25 01:05:27;;;;;;;10.10;6.20;;;;;;;9.82;83.96;99311.14;103851;279;39821;-74
2023/03/25 01:08:01;;;;;;;8.10;6.10;;;;;;;9.79;83.95;99311.27;103829;279;39471;-72
2023/03/25 01:10:36;;;;;;;8.10;6.10;;;;;;;9.75;83.90;99310.11;103839;279;38243;-72
2023/03/25 01:13:11;;;;;;;9.20;6.10;;;;;;;9.70;83.97;99311.92;103845;278;39410;-73
2023/03/25 01:15:45;;;;;;;7.20;5.50;;;;;;;9.66;84.03;99311.93;103876;279;39453;-74
2023/03/25 01:18:19;;;;;;;8.20;6.30;;;;;;;9.61;84.03;99313.93;103860;278;39817;-72
2023/03/25 01:20:53;;;;;;;8.60;6.80;;;;;;;9.55;83.88;99320.15;103802;279;39807;-72
2023/03/25 01:23:28;;;;;;;7.40;6.40;;;;;;;9.51;84.04;99317.74;103717;279;38558;-75
2023/03/25 01:26:03;;;;;;;9.00;7.00;;;;;;;9.46;84.21;99311.92;103833;279;38232;-75
2023/03/25 01:28:37;;;;;;;8.30;6.50;;;;;;;9.39;84.09;99308.64;103838;279;38866;-72
2023/03/25 01:31:13;;;;;;;6.70;5.30;;;;;;;9.32;84.01;99310.04;103843;279;38285;-71
2023/03/25 01:33:47;;;;;;;7.20;6.10;;;;;;;9.25;84.05;99315.73;103772;279;39247;-73
2023/03/25 01:36:23;;;;;;;7.00;6.10;;;;;;;9.21;84.21;99308.44;103807;278;38509;-74
2023/03/25 01:38:58;;;;;;;9.00;6.10;;;;;;;9.18;84.15;99305.11;103794;278;39805;-71
2023/03/25 01:41:33;;;;;;;11.70;6.70;;;;;;;9.12;84.01;99303.71;103713;279;38226;-71
2023/03/25 01:44:10;;;;;;;9.70;6.60;;;;;;;9.03;84.11;99307.78;103834;279;38528;-72
2023/03/25 01:46:45;;;;;;;8.60;6.50;;;;;;;8.94;84.14;99311.70;103830;279;40123;-72
2023/03/25 01:49:22;;;;;;;7.20;6.00;;;;;;;8.84;84.18;99311.64;103814;279;39419;-73
2023/03/25 01:51:59;;;;;;;7.80;6.30;;;;;;;8.78;84.45;99310.38;103811;279;39454;-71
2023/03/25 01:54:34;;;;;;;7.00;5.80;;;;;;;8.73;84.81;99314.07;103837;279;38412;-73
2023/03/25 01:57:09;;;;;;;8.40;6.30;;;;;;;8.71;85.00;99313.64;103821;278;39543;-73
2023/03/25 01:59:43;;;;;;;9.40;6.30;;;;;;;8.68;84.88;99310.34;103852;279;38285;-72
2023/03/25 02:02:17;;;;;;;8.30;6.60;;;;;;;8.63;85.00;99308.45;103846;279;38418;-72
2023/03/25 02:05:01;;;;;;;9.30;7.10;;;;;;;8.62;85.20;99309.20;103814;279;38258;-74
2023/03/25 02:07:38;;;;;;;10.20;7.20;;;;;;;8.60;85.34;99319.42;103858;278;38358;-73
2023/03/25 02:10:14;;;;;;;8.30;6.50;;;;;;;8.53;85.37;99323.70;103756;279;38227;-72
2023/03/25 02:12:49;;;;;;;9.60;6.40;;;;;;;8.49;85.24;99321.65;103833;278;38220;-73
2023/03/25 02:15:23;;;;;;;8.40;6.70;;;;;;;8.43;85.08;99325.23;103863;279;38259;-72
2023/03/25 02:18:08;;;;;;;8.20;6.60;;;;;;;8.37;84.98;99323.77;103706;279;38571;-74
2023/03/25 02:21:27;;;;;;;9.30;7.50;;;;;;;8.31;85.23;99323.13;103835;279;38573;-73
2023/03/25 02:24:41;;;;;;;10.00;7.20;;;;;;;8.24;85.37;99319.95;103601;279;38536;-70
2023/03/25 02:27:47;;;;;;;8.00;6.60;;;;;;;8.15;85.44;99313.77;103828;279;38548;-70
2023/03/25 02:31:10;;;;;;;7.70;6.60;;;;;;;8.08;85.55;99312.36;103792;279;39622;-72
2023/03/25 02:34:16;;;;;;;8.90;7.10;;;;;;;8.03;85.80;99308.77;103786;278;38367;-71
2023/03/25 02:37:25;;;;;;;8.80;7.20;;;;;;;7.95;85.43;99311.86;103803;278;39661;-71
2023/03/25 02:40:01;;;;;;;8.80;7.10;;;;;;;7.85;85.43;99307.29;103793;279;38498;-73
2023/03/25 02:42:39;;;;;;;9.20;7.10;;;;;;;7.81;85.55;99308.17;103815;278;39952;-72
2023/03/25 02:45:17;;;;;;;10.40;7.80;;;;;;;7.78;85.62;99306.20;103813;278;39674;-70
2023/03/25 02:47:54;;;;;;;10.90;8.60;;;;;;;7.74;85.71;99307.77;103872;278;38371;-71
2023/03/25 02:50:30;;;;;;;10.50;8.20;;;;;;;7.70;85.62;99311.09;103714;279;37912;-72
2023/03/25 02:53:07;;;;;;;11.30;7.80;;;;;;;7.66;85.69;99315.78;103870;266;38278;-72
2023/03/25 02:55:43;;;;;;;7.70;6.90;;;;;;;7.62;85.78;99313.84;103833;278;39203;-71
2023/03/25 02:58:20;;;;;;;13.80;7.40;;;;;;;7.59;85.92;99312.92;103832;278;39450;-73
2023/03/25 03:00:57;;;;;;;9.70;7.00;;;;;;;7.59;86.11;99310.20;103815;278;38408;-74
2023/03/25 03:03:31;;;;;;;10.10;7.60;;;;;;;7.58;86.41;99314.02;103812;278;38375;-75
2023/03/25 03:06:08;;;;;;;9.60;7.70;;;;;;;7.59;86.36;99313.83;103829;278;38292;-75
2023/03/25 03:09:17;;;;;;;8.80;6.60;;;;;;;7.56;86.34;99311.35;103804;278;38647;-72
2023/03/25 03:11:59;;;;;;;10.20;6.70;;;;;;;7.51;86.65;99318.66;103826;278;38418;-72
2023/03/25 03:14:58;;;;;;;9.50;7.10;;;;;;;7.52;86.89;99320.88;103834;278;38408;-72
2023/03/25 03:17:38;;;;;;;7.40;6.50;;;;;;;7.54;86.79;99318.70;103809;278;39686;-72
2023/03/25 03:20:20;;;;;;;10.10;8.00;;;;;;;7.52;86.70;99320.35;103814;278;38628;-70
2023/03/25 03:22:57;;;;;;;9.90;8.20;;;;;;;7.50;86.81;99321.12;103854;278;38811;-72
2023/03/25 03:25:33;;;;;;;8.20;7.20;;;;;;;7.45;86.54;99328.46;103832;278;39411;-72
2023/03/25 03:28:08;;;;;;;9.30;6.80;;;;;;;7.41;86.69;99330.72;103835;278;39383;-72
2023/03/25 03:30:45;;;;;;;7.60;6.70;;;;;;;7.39;86.78;99333.40;103850;278;39042;-72
2023/03/25 03:33:24;;;;;;;11.00;7.20;;;;;;;7.39;86.87;99330.08;103819;278;39570;-73
2023/03/25 03:36:00;;;;;;;9.80;7.50;;;;;;;7.38;86.99;99330.13;103793;267;39429;-74
2023/03/25 03:38:38;;;;;;;9.30;7.60;;;;;;;7.34;86.88;99326.65;103890;278;38466;-73
2023/03/25 03:41:14;;;;;;;8.80;7.20;;;;;;;7.32;86.94;99322.25;103728;278;38500;-74
2023/03/25 03:43:50;;;;;;;8.30;6.80;;;;;;;7.28;86.81;99319.80;103842;278;38258;-72
2023/03/25 03:46:27;;;;;;;7.80;6.30;;;;;;;7.22;86.71;99314.33;103815;278;38613;-72
2023/03/25 03:49:02;;;;;;;8.60;6.00;;;;;;;7.17;86.71;99314.87;103843;278;39551;-72
2023/03/25 03:51:38;;;;;;;8.10;6.80;;;;;;;7.13;86.45;99315.20;103816;278;38354;-73
2023/03/25 03:54:15;;;;;;;8.70;6.90;;;;;;;7.06;86.52;99322.09;103644;279;177299;-72
2023/03/25 03:56:52;;;;;;;6.70;6.00;;;;;;;7.01;86.48;99322.64;103817;302;39687;-71
2023/03/25 03:59:33;;;;;;;7.40;5.90;;;;;;;6.94;86.40;99326.17;103908;278;38476;-73
2023/03/25 04:02:13;;;;;;;9.00;6.00;;;;;;;6.87;86.13;99337.59;103791;278;38682;-73
2023/03/25 04:04:47;;;;;;;8.10;6.50;;;;;;;6.82;86.36;99341.77;103866;278;38702;-72
2023/03/25 04:07:24;;;;;;;9.00;6.80;;;;;;;6.76;86.28;99333.34;103807;278;38582;-72
2023/03/25 04:10:03;;;;;;;8.20;6.70;;;;;;;6.65;86.37;99334.45;103877;278;39706;-72
2023/03/25 04:12:39;;;;;;;7.50;5.90;;;;;;;6.60;86.62;99343.66;103843;278;38276;-72
2023/03/25 04:15:15;;;;;;;9.00;7.30;;;;;;;6.58;86.74;99346.52;103707;278;38805;-72
2023/03/25 04:17:51;;;;;;;10.10;6.60;;;;;;;6.60;87.07;99342.45;103859;278;39444;-72
2023/03/25 04:20:28;;;;;;;9.40;7.40;;;;;;;6.62;87.33;99345.11;103790;278;38296;-71
2023/03/25 04:23:03;;;;;;;10.40;8.50;;;;;;;6.63;87.58;99347.17;103854;278;39807;-72
2023/03/25 04:25:38;;;;;;;9.90;7.60;;;;;;;6.64;87.80;99345.91;103805;278;39814;-72
2023/03/25 04:28:16;;;;;;;11.00;7.30;;;;;;;6.66;87.67;99344.44;103769;279;38690;-72
2023/03/25 04:30:54;;;;;;;9.40;7.30;;;;;;;6.68;87.80;99343.66;103788;278;38624;-71
2023/03/25 04:33:30;;;;;;;8.60;7.40;;;;;;;6.72;87.96;99342.14;103101;278;908743;-74
2023/03/25 04:36:05;;;;;;;10.30;8.10;;;;;;;6.77;88.31;99346.65;103814;278;38278;-74
2023/03/25 04:38:39;;;;;;;11.80;8.40;;;;;;;6.83;88.52;99353.88;103849;278;39139;-73
2023/03/25 04:41:14;;;;;;;9.90;7.70;;;;;;;6.86;88.49;99358.27;103793;278;39309;-74
2023/03/25 04:43:49;;;;;;;11.20;8.40;;;;;;;6.88;88.43;99360.22;103852;278;39725;-72
2023/03/25 04:46:24;;;;;;;11.40;7.90;;;;;;;6.92;88.53;99359.42;103824;278;40120;-72
2023/03/25 04:48:59;;;;;;;10.50;8.40;;;;;;;6.97;88.86;99358.31;103795;278;38563;-72
2023/03/25 04:51:33;;;;;;;10.30;8.30;;;;;;;7.05;89.37;99354.55;103821;278;38288;-72
2023/03/25 04:54:07;;;;;;;10.30;8.50;;;;;;;7.15;89.51;99344.98;103825;278;40452;-72
2023/03/25 04:56:41;;;;;;;11.50;8.10;;;;;;;7.21;89.38;99347.31;103815;278;38249;-72
2023/03/25 04:59:15;;;;;;;10.50;7.40;;;;;;;7.26;89.35;99341.77;103782;278;39700;-73
2023/03/25 05:01:51;;;;;;;9.80;7.50;;;;;;;7.31;89.21;99335.30;103803;278;38389;-74
2023/03/25 05:04:25;;;;;;;10.70;7.90;;;;;;;7.36;89.35;99338.20;103741;278;38355;-72
2023/03/25 05:07:00;;;;;;;10.00;8.30;;;;;;;7.44;89.53;99348.64;103809;278;38451;-74
2023/03/25 05:09:34;;;;;;;9.90;7.80;;;;;;;7.47;89.41;99350.89;103825;278;39651;-74
2023/03/25 05:12:10;;;;;;;11.90;8.90;;;;;;;7.53;89.59;99354.69;103804;278;38530;-74
2023/03/25 05:14:44;;;;;;;9.70;8.00;;;;;;;7.56;89.37;99357.67;103832;278;38736;-72
2023/03/25 05:17:18;;;;;;;8.60;7.30;;;;;;;7.61;89.51;99355.37;103839;278;38243;-72
2023/03/25 05:19:53;;;;;;;11.10;8.30;;;;;;;7.69;89.55;99350.84;103855;278;38371;-74
2023/03/25 05:22:28;;;;;;;11.10;8.60;;;;;;;7.78;89.75;99355.87;103830;278;39996;-74
2023/03/25 05:25:03;;;;;;;10.40;8.30;;;;;;;7.87;89.95;99353.05;103853;278;38502;-74
2023/03/25 05:27:37;;;;;;;12.00;9.40;;;;;;;7.92;89.73;99353.02;103840;278;40285;-73
2023/03/25 05:30:14;;;;;;;12.30;8.60;;;;;;;7.97;89.82;99357.63;103769;278;38494;-72
2023/03/25 05:32:49;;;;;;;10.80;8.10;;;;;;;8.03;89.71;99366.27;103864;278;38770;-72
2023/03/25 05:35:25;;;;;;;12.20;9.30;;;;;;;8.10;89.67;99369.77;103789;278;38727;-72
2023/03/25 05:37:59;;;;;;;12.10;9.10;;;;;;;8.14;89.63;99366.80;103857;278;39682;-74
2023/03/25 05:40:33;;;;;;;12.80;9.10;;;;;;;8.20;89.67;99367.08;103822;278;38402;-73
2023/03/25 05:43:07;;;;;;;14.60;9.70;;;;;;;8.21;89.55;99368.02;103866;278;40132;-73
2023/03/25 05:45:43;;;;;;;11.80;9.20;;;;;;;8.24;89.52;99366.02;103842;278;39301;-74
2023/03/25 05:48:18;;;;;;;11.50;9.00;;;;;;;8.27;89.44;99367.27;103866;278;38477;-73
2023/03/25 05:50:55;;;;;;;12.30;9.70;;;;;;;8.34;89.50;99364.23;103793;278;40091;-74
2023/03/25 05:53:32;;;;;;;11.80;9.50;;;;;;;8.37;89.53;99362.17;103698;279;39450;-75
2023/03/25 05:56:07;;;;;;;12.10;9.70;;;;;;;8.39;89.51;99363.98;103825;278;38525;-73
2023/03/25 05:58:41;;;;;;;12.40;9.00;;;;;;;8.45;89.63;99367.70;103390;278;593299;-71
2023/03/25 06:01:16;;;;;;;10.10;9.10;;;;;;;8.53;89.74;99368.71;103836;278;38262;-72
2023/03/25 06:03:50;;;;;;;12.00;9.20;;;;;;;8.62;89.76;99370.59;103827;278;38579;-74
2023/03/25 06:06:26;;;;;;;11.30;9.60;;;;;;;8.72;89.84;99378.48;103823;278;38248;-72
2023/03/25 06:09:01;;;;;;;12.30;10.20;;;;;;;8.81;89.70;99381.02;103902;278;38240;-74
2023/03/25 06:11:36;;;;;;;13.90;9.40;;;;;;;8.86;89.62;99379.72;103843;278;38509;-72
2023/03/25 06:14:11;;;;;;;13.20;9.50;;;;;;;8.91;89.42;99376.20;103881;278;39684;-73
2023/03/25 06:16:48;;;;;;;11.10;9.10;;;;;;;8.99;89.55;99381.72;103749;278;39407;-73
2023/03/25 06:19:25;;;;;;;11.30;9.50;;;;;;;9.09;89.47;99387.34;103834;278;38225;-73
2023/03/25 06:22:00;;;;;;;12.50;9.90;;;;;;;9.18;89.37;99385.89;103808;278;38542;-73
2023/03/25 06:24:34;;;;;;;13.20;10.00;;;;;;;9.26;89.45;99385.45;103828;278;38755;-74
2023/03/25 06:27:09;;;;;;;13.80;10.80;;;;;;;9.36;89.27;99380.31;103798;278;38864;-74
2023/03/25 06:29:44;;;;;;;11.50;9.10;;;;;;;9.45;89.13;99379.86;103732;278;38496;-74
2023/03/25 06:32:19;;;;;;;11.90;9.10;;;;;;;9.58;89.33;99377.48;103812;278;39207;-74
2023/03/25 06:34:53;;;;;;;12.00;9.60;;;;;;;9.73;89.18;99371.16;103824;278;38494;-71
2023/03/25 06:37:30;;;;;;;11.90;10.10;;;;;;;9.88;89.02;99366.21;103806;278;39431;-71
2023/03/25 06:40:05;;;;;;;12.20;9.70;;;;;;;10.05;89.00;99369.17;103088;279;904029;-73
2023/03/25 06:42:40;;;;;;;13.50;10.50;;;;;;;10.22;89.05;99368.10;103877;278;40128;-74
2023/03/25 06:45:15;;;;;;;13.00;10.30;;;;;;;10.36;88.38;99367.55;103816;278;38266;-72
2023/03/25 06:47:52;;;;;;;10.90;9.00;;;;;;;10.48;87.91;99374.23;103740;278;38892;-74
2023/03/25 06:50:26;;;;;;;13.00;10.40;;;;;;;10.64;87.94;99369.36;103808;278;38252;-74
2023/03/25 06:53:02;;;;;;;12.60;9.80;;;;;;;10.78;87.71;99364.91;103808;278;38957;-75
2023/03/25 06:55:37;;;;;;;14.60;10.00;;;;;;;10.90;86.96;99356.65;103811;278;38534;-75
2023/03/25 06:58:14;;;;;;;11.50;10.20;;;;;;;10.98;86.70;99354.23;103739;278;38912;-75
2023/03/25 07:00:53;;;;;;;12.70;10.00;;;;;;;11.05;86.07;99354.06;103802;278;39423;-72
2023/03/25 07:03:27;;;;;;;11.70;10.00;;;;;;;11.05;85.34;99351.25;103624;280;39889;-72
2023/03/25 07:06:04;;;;;;;11.70;9.90;;;;;;;11.05;84.97;99346.19;103848;278;38589;-70
2023/03/25 07:08:38;;;;;;;13.50;9.50;;;;;;;11.08;84.42;99348.27;103701;278;38434;-70
2023/03/25 07:11:14;;;;;;;12.00;10.50;;;;;;;11.14;84.83;99349.67;103839;278;38795;-72
2023/03/25 07:13:52;;;;;;;11.80;10.10;;;;;;;11.22;84.91;99349.90;103831;278;38227;-76
2023/03/25 07:16:26;;;;;;;10.90;9.60;;;;;;;11.41;85.25;99348.49;103818;278;38937;-74
2023/03/25 07:19:00;;;;;;;11.70;8.50;;;;;;;11.60;84.83;99352.42;103836;278;39699;-74
2023/03/25 07:21:36;;;;;;;11.20;8.70;;;;;;;11.86;84.79;99360.20;103839;278;38527;-73
2023/03/25 07:24:10;;;;;;;10.70;8.90;;;;;;;12.21;84.79;99360.73;103873;278;38288;-74
2023/03/25 07:26:45;;;;;;;13.10;9.30;;;;;;;12.57;84.45;99361.66;103653;278;38098;-73
2023/03/25 07:29:22;;;;;;;15.10;9.10;;;;;;;13.27;84.31;99354.02;103816;278;39102;-75
2023/03/25 07:32:00;;;;;;;11.60;9.40;;;;;;;14.10;84.44;99347.80;103832;278;38348;-73
2023/03/25 07:34:38;;;;;;;10.70;7.90;;;;;;;14.92;81.65;99340.25;103855;278;39412;-72
2023/03/25 07:37:14;;;;;;;9.40;8.40;;;;;;;15.45;76.46;99344.96;103831;278;38225;-71
2023/03/25 07:39:48;;;;;;;9.40;8.40;;;;;;;15.93;75.70;99347.52;103200;279;899447;-75
2023/03/25 07:42:24;;;;;;;9.00;7.90;;;;;;;16.45;73.97;99344.88;103818;278;38249;-75
2023/03/25 07:44:59;;;;;;;10.10;7.80;;;;;;;16.93;72.24;99347.08;103665;278;38230;-72
2023/03/25 07:47:34;;;;;;;10.10;7.90;;;;;;;17.31;70.74;99353.15;103858;278;38770;-72
2023/03/25 07:50:11;;;;;;;8.90;8.00;;;;;;;17.62;68.22;99349.53;103855;278;38479;-72
2023/03/25 07:52:50;;;;;;;9.60;7.70;;;;;;;18.08;66.44;99348.39;103895;278;38429;-74
2023/03/25 07:55:25;;;;;;;11.40;7.70;;;;;;;18.66;65.09;99344.52;103849;278;38404;-75
2023/03/25 07:58:01;;;;;;;8.40;7.00;;;;;;;19.41;62.94;99343.13;103761;278;38442;-74
2023/03/25 08:00:35;;;;;;;9.70;7.40;;;;;;;20.02;60.87;99347.94;103811;278;39314;-75
2023/03/25 08:03:11;;;;;;;8.50;7.60;;;;;;;20.35;58.60;99347.71;103868;278;38235;-74
2023/03/25 08:05:49;;;;;;;8.20;7.20;;;;;;;20.52;57.81;99346.83;103825;278;39692;-74
2023/03/25 08:08:24;;;;;;;8.00;6.90;;;;;;;20.69;55.27;99346.39;103853;278;39561;-71
2023/03/25 08:10:58;;;;;;;8.40;7.00;;;;;;;20.95;55.08;99353.95;103842;278;38465;-74
2023/03/25 08:13:33;;;;;;;8.50;6.60;;;;;;;21.63;53.66;99344.49;103862;278;38720;-73
2023/03/25 08:16:13;;;;;;;9.40;7.10;;;;;;;22.36;51.95;99341.46;103829;278;38805;-71
2023/03/25 08:18:51;;;;;;;7.40;6.30;;;;;;;22.82;50.69;99343.27;103851;278;38413;-73
2023/03/25 08:21:26;;;;;;;8.20;6.10;;;;;;;23.47;49.16;99337.20;103841;278;38785;-73
2023/03/25 08:24:03;;;;;;;7.70;6.20;;;;;;;23.84;47.49;99335.80;103830;278;39386;-73
2023/03/25 08:26:37;;;;;;;7.30;5.90;;;;;;;24.25;45.32;99335.96;103827;278;38223;-73
2023/03/25 08:29:12;;;;;;;6.50;5.90;;;;;;;24.68;45.05;99340.90;103908;278;38448;-75
2023/03/25 08:31:51;;;;;;;6.30;5.50;;;;;;;25.37;44.02;99330.36;103759;278;39432;-72
2023/03/25 08:34:26;;;;;;;7.70;5.80;;;;;;;26.16;42.78;99328.34;103888;278;39116;-74
2023/03/25 08:37:00;;;;;;;6.50;5.70;;;;;;;26.69;40.50;99323.19;103839;278;38234;-74
2023/03/25 08:39:38;;;;;;;6.20;5.60;;;;;;;27.09;39.85;99320.95;103733;278;174268;-74
2023/03/25 08:42:13;;;;;;;5.90;5.00;;;;;;;27.67;38.77;99324.02;103842;278;38397;-72
2023/03/25 08:44:47;;;;;;;6.60;5.40;;;;;;;28.13;36.98;99323.57;103858;278;38896;-74
2023/03/25 08:47:21;;;;;;;6.30;5.40;;;;;;;28.39;36.20;99322.80;103732;278;38723;-75
2023/03/25 08:49:57;;;;;;;7.60;5.70;;;;;;;28.47;35.62;99318.80;103784;278;38271;-74
2023/03/25 08:52:31;;;;;;;6.20;5.60;;;;;;;28.67;35.19;99319.39;103825;278;39086;-74
2023/03/25 08:55:06;;;;;;;6.50;5.50;;;;;;;28.80;34.11;99317.56;103831;278;39448;-74
2023/03/25 08:57:41;;;;;;;7.70;5.70;;;;;;;28.82;34.53;99317.29;103913;278;38309;-73
2023/03/25 09:00:22;;;;;;;8.00;5.70;;;;;;;29.02;34.39;99317.80;103799;278;38808;-72
2023/03/25 09:02:58;;;;;;;6.30;5.10;;;;;;;29.30;33.84;99310.43;103834;278;38492;-73
2023/03/25 09:05:32;;;;;;;5.80;5.10;;;;;;;29.48;33.42;99309.58;103786;278;38263;-73
2023/03/25 09:08:08;;;;;;;6.60;5.50;;;;;;;29.58;33.19;99316.19;103845;278;38510;-73
2023/03/25 09:10:42;;;;;;;5.20;4.70;;;;;;;29.24;32.72;99310.38;103828;278;38951;-72
2023/03/25 09:13:16;;;;;;;5.40;4.80;;;;;;;28.58;33.09;99310.27;103832;278;39396;-74
2023/03/25 09:15:50;;;;;;;5.70;4.90;;;;;;;27.91;33.39;99308.47;103818;278;39216;-71
2023/03/25 09:18:24;;;;;;;5.40;4.60;;;;;;;27.12;33.61;99308.73;103827;278;38473;-74
2023/03/25 09:21:03;;;;;;;5.50;4.30;;;;;;;26.35;34.46;99312.24;103837;275;38228;-75
2023/03/25 09:23:37;;;;;;;6.10;4.30;;;;;;;25.55;34.31;99317.70;103833;278;38470;-74
2023/03/25 09:26:11;;;;;;;5.00;4.50;;;;;;;24.78;35.65;99318.04;103799;278;38217;-74
2023/03/25 09:28:46;;;;;;;7.10;5.10;;;;;;;24.14;36.55;99316.63;103824;278;39418;-74
2023/03/25 09:31:20;;;;;;;6.80;4.80;;;;;;;23.58;37.12;99322.63;103781;278;38550;-74
2023/03/25 09:33:55;;;;;;;6.50;4.80;;;;;;;23.16;38.11;99320.59;103888;278;38657;-74
2023/03/25 09:36:32;;;;;;;6.20;4.70;;;;;;;22.74;38.79;99322.42;103780;278;38563;-73
2023/03/25 09:39:07;;;;;;;6.00;4.60;;;;;;;22.42;39.64;99318.42;103830;278;39426;-75
2023/03/25 09:42:01;;;;;;;6.60;5.00;;;;;;;22.20;39.95;99316.25;103809;278;38484;-73
2023/03/25 09:44:38;;;;;;;7.50;5.10;;;;;;;21.96;40.64;99315.21;103851;278;39732;-75
2023/03/25 09:47:12;;;;;;;6.60;4.60;;;;;;;21.71;40.93;99315.27;103796;278;38371;-76
2023/03/25 09:49:52;;;;;;;5.00;4.40;;;;;;;21.47;41.29;99311.23;103848;278;39467;-74
2023/03/25 09:52:29;;;;;;;5.50;4.90;;;;;;;21.34;41.91;99314.20;103809;278;39685;-74
2023/03/25 09:55:08;;;;;;;6.40;5.70;;;;;;;21.18;41.71;99310.77;103755;278;38551;-73
2023/03/25 09:57:47;;;;;;;8.40;5.40;;;;;;;20.98;42.27;99313.30;103778;278;38227;-72
2023/03/25 10:00:24;;;;;;;5.50;4.80;;;;;;;20.83;43.10;99316.54;103842;278;39397;-73
2023/03/25 10:03:06;;;;;;;6.40;5.50;;;;;;;20.68;42.94;99318.18;103842;278;38251;-77
2023/03/25 10:06:10;;;;;;;6.20;4.80;;;;;;;20.47;43.12;99317.65;103706;279;38618;-75
2023/03/25 10:08:55;;;;;;;7.10;4.70;;;;;;;20.34;43.85;99318.20;103825;278;38477;-74
2023/03/25 10:11:37;;;;;;;6.20;5.10;;;;;;;20.30;44.55;99316.23;103748;278;188061;-74
2023/03/25 10:14:15;;;;;;;5.70;4.40;;;;;;;20.35;44.52;99315.64;103840;279;38233;-72
2023/03/25 10:16:58;;;;;;;5.80;4.00;;;;;;;20.34;43.68;99312.38;103868;278;39404;-72
2023/03/25 10:19:56;;;;;;;6.40;4.00;;;;;;;20.30;43.88;99312.73;103864;279;38654;-74
2023/03/25 10:22:35;;;;;;;9.10;4.40;;;;;;;20.25;44.19;99311.58;103818;278;39826;-73
2023/03/25 10:25:13;;;;;;;6.90;4.40;;;;;;;20.28;44.36;99306.88;103817;278;39661;-73
2023/03/25 10:27:48;;;;;;;7.70;5.00;;;;;;;20.41;44.62;99308.55;103638;279;188029;-75
2023/03/25 10:30:31;;;;;;;6.10;4.40;;;;;;;20.58;44.35;99304.77;103696;278;39105;-76
2023/03/25 10:33:07;;;;;;;7.40;4.70;;;;;;;20.75;44.99;99300.83;103755;278;38342;-74
2023/03/25 10:35:43;;;;;;;6.80;5.20;;;;;;;20.93;44.82;99294.60;103852;278;38811;-74
2023/03/25 10:38:19;;;;;;;7.40;4.90;;;;;;;20.82;43.60;99291.46;103843;266;38260;-74
2023/03/25 10:40:59;;;;;;;6.10;4.70;;;;;;;20.52;44.31;99285.27;103843;278;39176;-73
2023/03/25 10:43:36;;;;;;;6.00;4.80;;;;;;;20.27;44.46;99284.86;103846;278;38674;-73
2023/03/25 10:46:17;;;;;;;5.20;4.30;;;;;;;20.13;44.45;99287.98;103829;278;39625;-73
2023/03/25 10:48:51;;;;;;;5.50;4.60;;;;;;;19.92;44.45;99288.05;103831;278;38443;-71
2023/03/25 10:51:28;;;;;;;5.60;4.10;;;;;;;19.74;44.69;99284.59;103807;278;38523;-73
2023/03/25 10:54:02;;;;;;;6.30;4.00;;;;;;;19.55;45.09;99286.17;103898;278;39994;-75
2023/03/25 10:56:39;;;;;;;6.70;4.50;;;;;;;19.48;45.55;99284.46;103714;278;39101;-75
2023/03/25 10:59:19;;;;;;;4.10;3.40;;;;;;;19.34;45.03;99280.16;103897;278;38407;-73
2023/03/25 11:01:53;;;;;;;4.60;3.40;;;;;;;19.08;45.20;99278.40;103791;278;39456;-73
2023/03/25 11:04:34;;;;;;;4.90;3.10;;;;;;;18.89;45.67;99277.71;103789;278;38527;-72
2023/03/25 11:07:19;;;;;;;4.60;3.10;;;;;;;18.83;46.10;99272.77;103753;279;38227;-73
2023/03/25 11:09:53;;;;;;;5.00;2.70;;;;;;;18.84;46.16;99263.98;103792;279;38453;-73
2023/03/25 11:12:28;;;;;;;4.60;2.60;;;;;;;18.85;45.60;99264.07;103713;279;38826;-73
2023/03/25 11:15:01;;;;;;;5.00;2.60;;;;;;;18.81;45.18;99263.36;103721;279;38501;-74
2023/03/25 11:17:42;;;;;;;5.10;2.30;;;;;;;18.64;44.59;99265.02;103600;280;188384;-73
2023/03/25 11:20:26;;;;;;;4.00;2.40;;;;;;;18.40;44.68;99263.83;103840;279;38471;-73
2023/03/25 11:23:07;;;;;;;4.60;3.30;;;;;;;18.27;45.60;99259.98;103765;279;38411;-74
2023/03/25 11:25:42;;;;;;;3.90;2.50;;;;;;;18.32;46.59;99252.83;103639;279;38499;-74
2023/03/25 11:28:21;;;;;;;5.20;2.40;;;;;;;18.46;46.68;99242.41;103779;279;39529;-75
2023/03/25 11:31:13;;;;;;;4.20;2.30;;;;;;;18.57;46.70;99236.86;103760;279;40442;-73
2023/03/25 11:34:03;;;;;;;4.80;2.40;;;;;;;18.61;46.17;99236.52;103786;279;38262;-73
2023/03/25 11:36:40;;;;;;;3.70;1.90;;;;;;;18.57;45.59;99230.36;103726;279;38500;-73
2023/03/25 11:39:18;;;;;;;4.40;2.00;;;;;;;18.52;45.31;99223.88;103680;279;39576;-73
2023/03/25 11:41:54;;;;;;;3.80;2.00;;;;;;;18.43;45.29;99222.95;103707;279;38259;-72
2023/03/25 11:44:30;;;;;;;3.10;1.60;;;;;;;18.35;45.12;99215.89;103756;279;39694;-74
2023/03/25 11:47:07;;;;;;;3.60;2.00;;;;;;;18.30;44.91;99220.73;103757;279;38298;-74
2023/03/25 11:49:41;;;;;;;5.60;2.10;;;;;;;18.20;45.11;99215.08;103792;279;38291;-72
2023/03/25 11:52:20;;;;;;;3.60;2.10;;;;;;;18.14;44.75;99219.02;103720;279;38224;-73
2023/03/25 11:54:58;;;;;;;4.10;2.00;;;;;;;18.09;45.24;99216.83;103774;279;38214;-74
2023/03/25 11:57:37;;;;;;;2.40;1.70;;;;;;;18.15;45.62;99214.11;103603;269;38719;-73
2023/03/25 12:00:31;;;;;;;3.70;2.10;;;;;;;18.19;45.65;99210.62;103770;279;38278;-73
2023/03/25 12:03:16;;;;;;;3.70;2.10;;;;;;;18.27;45.85;99214.95;103463;280;174872;-72
2023/03/25 12:06:01;;;;;;;3.90;2.00;;;;;;;18.31;45.62;99207.39;103564;280;39610;-74
2023/03/25 12:12:07;;;;;;;3.70;1.80;;;;;;;18.30;45.12;99192.15;103702;277;38436;-73
2023/03/25 12:14:54;;;;;;;3.70;2.10;;;;;;;18.28;45.18;99190.54;103828;279;38686;-72
2023/03/25 12:17:38;;;;;;;2.80;1.70;;;;;;;18.26;44.98;99190.58;103842;279;38390;-72
2023/03/25 12:20:20;;;;;;;4.90;2.10;;;;;;;18.25;45.59;99191.15;103795;279;38236;-72
2023/03/25 12:23:03;;;;;;;3.80;2.30;;;;;;;18.29;45.69;99191.39;103850;279;38448;-72
2023/03/25 12:25:52;;;;;;;4.50;2.30;;;;;;;18.31;45.93;99189.20;103802;279;38250;-72